Lynemouth, United Kingdom
Current Conditions -  °F | °C
As of 6:50 AM on Friday 31 Oct 2014 (Local Time) from EGNT Reporting Station
Few Clouds Few Clouds  
Wind Chill: 55°   Ceiling: Unl
Heat Index: 55°   Visibility: 6mi
Dew Point: 54°   Wind: 8mph
Humidity: 94%   Direction: 160°SSE
Pressure: 29.85"   Gusts: NA
Location:  55.21°N, 1.54°W
Report Text: EGNT 310650Z 16007KT 120V200 9999 FEW038 13/12 Q1011
Loading
Personal Weather Stations






























Interactive Weather Map
Tropical Storm Tracking
New forecast layout! Learn more

10-Day Weather Forecast

Advertisements
Track Severe Weather on mobile